createdAt,value
2023-02-27T00:00:41.519Z,98211.44
2023-02-27T00:03:08.241Z,98214.75
2023-02-27T00:05:34.866Z,98214.81
2023-02-27T00:08:01.524Z,98213.06
2023-02-27T00:10:28.126Z,98223.47
2023-02-27T00:12:54.744Z,98213.84
2023-02-27T00:15:21.662Z,98211.56
2023-02-27T00:17:48.321Z,98214.00
2023-02-27T00:20:15.953Z,98222.63
2023-02-27T00:22:42.676Z,98211.81
2023-02-27T00:25:09.678Z,98221.44
2023-02-27T00:27:37.051Z,98209.91
2023-02-27T00:30:07.320Z,98224.50
2023-02-27T00:32:34.208Z,98217.56
2023-02-27T00:35:01.223Z,98221.03
2023-02-27T00:37:27.833Z,98219.53
2023-02-27T00:39:54.476Z,98230.59
2023-02-27T00:42:21.089Z,98227.53
2023-02-27T00:44:47.824Z,98226.06
2023-02-27T00:47:14.454Z,98223.22
2023-02-27T00:49:41.179Z,98217.94
2023-02-27T00:52:09.691Z,98225.38
2023-02-27T00:54:36.305Z,98218.75
2023-02-27T00:57:02.922Z,98225.66
2023-02-27T00:59:29.567Z,98227.94
2023-02-27T01:01:56.165Z,98215.31
2023-02-27T01:04:22.802Z,98217.75
2023-02-27T01:06:49.412Z,98219.38
2023-02-27T01:09:16.063Z,98213.50
2023-02-27T01:11:42.683Z,98220.38
2023-02-27T01:14:09.355Z,98212.63
2023-02-27T01:16:36.273Z,98216.47
2023-02-27T01:19:03.055Z,98227.03
2023-02-27T01:21:29.689Z,98221.41
2023-02-27T01:23:56.335Z,98216.97
2023-02-27T01:26:22.971Z,98214.03
2023-02-27T01:28:49.605Z,98213.91
2023-02-27T01:31:16.285Z,98209.03
2023-02-27T01:33:42.930Z,98210.97
2023-02-27T01:36:09.863Z,98213.09
2023-02-27T01:38:36.488Z,98207.22
2023-02-27T01:41:03.157Z,98213.59
2023-02-27T01:43:32.337Z,98221.75
2023-02-27T01:46:00.691Z,98225.50
2023-02-27T01:48:34.663Z,98218.22
2023-02-27T01:51:10.057Z,98223.38
2023-02-27T01:53:37.498Z,98233.63
2023-02-27T01:56:07.435Z,98222.38
2023-02-27T01:58:34.129Z,98223.81
2023-02-27T02:01:01.697Z,98227.56
2023-02-27T02:03:39.220Z,98231.59
2023-02-27T02:06:06.186Z,98231.03
2023-02-27T02:08:38.652Z,98235.84
2023-02-27T02:11:05.664Z,98238.47
2023-02-27T02:13:32.267Z,98231.50
2023-02-27T02:16:22.682Z,98235.34
2023-02-27T02:19:22.271Z,98235.06
2023-02-27T02:22:26.225Z,98232.53
2023-02-27T02:25:10.843Z,98225.81
2023-02-27T02:28:08.242Z,98230.50
2023-02-27T02:30:56.894Z,98227.31
2023-02-27T02:34:08.539Z,98227.72
2023-02-27T02:36:44.769Z,98239.53
2023-02-27T02:39:38.397Z,98252.88
2023-02-27T02:42:13.738Z,98250.84
2023-02-27T02:45:05.373Z,98264.13
2023-02-27T02:47:32.316Z,98265.31
2023-02-27T02:50:34.998Z,98254.69
2023-02-27T02:53:09.167Z,98256.13
2023-02-27T02:55:40.418Z,98260.41
2023-02-27T02:58:21.978Z,98254.69
2023-02-27T03:00:57.148Z,98254.13
2023-02-27T03:03:37.205Z,98250.78
2023-02-27T03:06:31.356Z,98256.91
2023-02-27T03:09:00.113Z,98263.22
2023-02-27T03:11:29.250Z,98256.72
2023-02-27T03:14:01.748Z,98263.94
2023-02-27T03:16:31.470Z,98269.56
2023-02-27T03:19:18.352Z,98276.22
2023-02-27T03:22:10.395Z,98270.94
2023-02-27T03:24:45.455Z,98272.50
2023-02-27T03:27:12.103Z,98275.47
2023-02-27T03:29:42.801Z,98283.91
2023-02-27T03:32:25.188Z,98267.66
2023-02-27T03:34:51.891Z,98271.53
2023-02-27T03:37:25.570Z,98275.91
2023-02-27T03:40:01.328Z,98272.16
2023-02-27T03:42:44.969Z,98283.06
2023-02-27T03:45:48.384Z,98285.25
2023-02-27T03:48:15.103Z,98292.31
2023-02-27T03:50:41.803Z,98292.81
2023-02-27T03:53:13.350Z,98295.78
2023-02-27T03:55:42.508Z,98296.03
2023-02-27T03:58:09.140Z,98293.84
2023-02-27T04:00:35.949Z,98287.91
2023-02-27T04:03:02.793Z,98294.19
2023-02-27T04:05:30.948Z,98291.25
2023-02-27T04:08:32.402Z,98294.66
2023-02-27T04:11:19.375Z,98298.28
2023-02-27T04:13:58.327Z,98289.84
2023-02-27T04:16:54.982Z,98302.69
2023-02-27T04:19:36.840Z,98296.47
2023-02-27T04:22:18.329Z,98297.38
2023-02-27T04:25:11.452Z,98301.38
2023-02-27T04:27:51.240Z,98307.22
2023-02-27T04:30:20.662Z,98312.72
2023-02-27T04:32:54.607Z,98310.59
2023-02-27T04:35:26.129Z,98317.03
2023-02-27T04:38:08.022Z,98319.38
2023-02-27T04:40:44.300Z,98317.50
2023-02-27T04:43:10.897Z,98326.91
2023-02-27T04:45:38.653Z,98319.47
2023-02-27T04:48:07.509Z,98331.09
2023-02-27T04:50:41.594Z,98339.34
2023-02-27T04:53:21.731Z,98342.31
2023-02-27T04:55:51.741Z,98345.16
2023-02-27T04:58:34.326Z,98353.84
2023-02-27T05:01:03.754Z,98360.56
2023-02-27T05:03:33.607Z,98356.25
2023-02-27T05:06:00.806Z,98369.69
2023-02-27T05:08:38.487Z,98364.63
2023-02-27T05:11:18.732Z,98372.34
2023-02-27T05:14:26.911Z,98373.25
2023-02-27T05:16:56.939Z,98378.34
2023-02-27T05:19:23.566Z,98388.59
2023-02-27T05:22:09.024Z,98392.25
2023-02-27T05:24:50.696Z,98389.97
2023-02-27T05:27:33.339Z,98400.00
2023-02-27T05:30:04.427Z,98394.06
2023-02-27T05:32:34.001Z,98399.38
2023-02-27T05:35:09.374Z,98390.50
2023-02-27T05:38:02.697Z,98395.09
2023-02-27T05:40:41.281Z,98395.28
2023-02-27T05:43:13.561Z,98393.28
2023-02-27T05:45:41.099Z,98388.84
2023-02-27T05:48:09.986Z,98403.97
2023-02-27T05:50:37.787Z,98412.44
2023-02-27T05:53:07.835Z,98409.69
2023-02-27T05:55:39.317Z,98407.81
2023-02-27T05:58:08.603Z,98406.69
2023-02-27T06:00:40.931Z,98408.63
2023-02-27T06:03:07.562Z,98410.19
2023-02-27T06:05:36.686Z,98410.63
2023-02-27T06:08:03.384Z,98419.97
2023-02-27T06:10:30.071Z,98423.66
2023-02-27T06:12:56.707Z,98432.38
2023-02-27T06:15:23.387Z,98437.38
2023-02-27T06:17:50.027Z,98435.06
2023-02-27T06:20:16.857Z,98440.19
2023-02-27T06:22:43.619Z,98436.31
2023-02-27T06:25:10.222Z,98442.03
2023-02-27T06:27:36.958Z,98442.56
2023-02-27T06:30:03.963Z,98445.03
2023-02-27T06:32:30.694Z,98445.84
2023-02-27T06:34:57.338Z,98448.06
2023-02-27T06:37:24.015Z,98455.81
2023-02-27T06:39:50.682Z,98462.63
2023-02-27T06:42:17.494Z,98466.69
2023-02-27T06:44:44.093Z,98447.81
2023-02-27T06:47:10.789Z,98454.19
2023-02-27T06:49:37.389Z,98453.53
2023-02-27T06:52:04.013Z,98450.16
2023-02-27T06:54:30.617Z,98459.25
2023-02-27T06:56:57.254Z,98448.25
2023-02-27T06:59:23.888Z,98453.47
2023-02-27T07:01:50.544Z,98462.00
2023-02-27T07:04:17.201Z,98457.34
2023-02-27T07:07:35.227Z,98461.63
2023-02-27T07:09:30.515Z,98469.16
2023-02-27T07:11:57.130Z,98478.75
2023-02-27T07:14:23.776Z,98486.97
2023-02-27T07:16:53.963Z,98482.31
2023-02-27T07:19:23.905Z,98483.81
2023-02-27T07:21:50.737Z,98477.81
2023-02-27T07:24:17.435Z,98491.31
2023-02-27T07:26:44.054Z,98494.97
2023-02-27T07:29:10.686Z,98488.31
2023-02-27T07:31:37.438Z,98492.22
2023-02-27T07:34:04.154Z,98509.56
2023-02-27T07:36:31.567Z,98514.63
2023-02-27T07:38:58.742Z,98513.19
2023-02-27T07:41:30.754Z,98509.03
2023-02-27T07:44:00.300Z,98505.34
2023-02-27T07:46:27.789Z,98513.53
2023-02-27T07:48:54.808Z,98513.06
2023-02-27T07:51:21.524Z,98506.19
2023-02-27T07:53:48.184Z,98515.22
2023-02-27T07:56:14.794Z,98511.63
2023-02-27T07:58:41.744Z,98524.94
2023-02-27T08:01:08.344Z,98527.34
2023-02-27T08:03:35.019Z,98531.31
2023-02-27T08:06:02.412Z,98531.09
2023-02-27T08:08:29.744Z,98539.72
2023-02-27T08:10:56.416Z,98541.41
2023-02-27T08:13:42.164Z,98539.47
2023-02-27T08:16:09.746Z,98546.69
2023-02-27T08:18:36.402Z,98543.00
2023-02-27T08:21:05.071Z,98551.78
2023-02-27T08:23:32.534Z,98542.16
2023-02-27T08:25:59.123Z,98544.97
2023-02-27T08:28:25.742Z,98533.94
2023-02-27T08:30:52.349Z,98543.47
2023-02-27T08:33:18.975Z,98538.13
2023-02-27T08:35:45.657Z,98544.84
2023-02-27T08:38:12.322Z,98532.78
2023-02-27T08:40:38.964Z,98540.38
2023-02-27T08:43:05.630Z,98536.38
2023-02-27T08:45:32.397Z,98532.44
2023-02-27T08:47:59.116Z,98536.25
2023-02-27T08:50:25.927Z,98546.97
2023-02-27T08:52:52.944Z,98540.16
2023-02-27T08:55:19.964Z,98534.16
2023-02-27T08:57:46.586Z,98544.06
2023-02-27T09:00:14.736Z,98552.81
2023-02-27T09:02:41.547Z,98556.66
2023-02-27T09:05:08.621Z,98563.97
2023-02-27T09:07:35.255Z,98571.78
2023-02-27T09:10:01.859Z,98566.00
2023-02-27T09:12:28.477Z,98578.75
2023-02-27T09:14:55.084Z,98568.50
2023-02-27T09:17:21.723Z,98579.06
2023-02-27T09:19:48.865Z,98576.53
2023-02-27T09:22:15.461Z,98579.06
2023-02-27T09:24:42.101Z,98578.91
2023-02-27T09:27:08.904Z,98573.34
2023-02-27T09:29:35.549Z,98578.75
2023-02-27T09:32:02.235Z,98585.19
2023-02-27T09:34:29.662Z,98582.97
2023-02-27T09:36:59.336Z,98583.09
2023-02-27T09:39:26.049Z,98584.88
2023-02-27T09:41:53.463Z,98592.31
2023-02-27T09:44:46.545Z,98588.84
2023-02-27T09:47:33.418Z,98590.00
2023-02-27T09:50:06.266Z,98599.34
2023-02-27T09:52:34.097Z,98597.59
2023-02-27T09:55:00.804Z,98590.72
2023-02-27T09:57:32.824Z,98595.03
2023-02-27T10:00:01.681Z,98611.75
2023-02-27T10:02:49.962Z,98593.38
2023-02-27T10:05:35.719Z,98586.16
2023-02-27T10:08:26.242Z,98585.41
2023-02-27T10:15:16.389Z,98588.53
2023-02-27T10:17:44.863Z,98589.66
2023-02-27T10:20:24.145Z,98598.25
2023-02-27T10:22:50.762Z,98590.44
2023-02-27T10:25:30.712Z,98595.13
2023-02-27T10:28:00.876Z,98610.44
2023-02-27T10:30:32.365Z,98626.44
2023-02-27T10:33:08.891Z,98618.41
2023-02-27T10:35:39.339Z,98607.03
2023-02-27T10:38:11.094Z,98594.25
2023-02-27T10:40:37.755Z,98583.72
2023-02-27T10:43:06.364Z,98578.22
2023-02-27T10:45:33.956Z,98583.38
2023-02-27T10:48:03.599Z,98572.94
2023-02-27T10:50:38.139Z,98570.44
2023-02-27T10:53:07.154Z,98560.88
2023-02-27T10:55:35.846Z,98551.19
2023-02-27T10:58:02.826Z,98556.94
2023-02-27T11:00:33.624Z,98547.50
2023-02-27T11:03:00.259Z,98553.72
2023-02-27T11:05:36.453Z,98557.44
2023-02-27T11:08:25.831Z,98546.84
2023-02-27T11:11:09.733Z,98543.47
2023-02-27T11:13:43.505Z,98533.47
2023-02-27T11:16:17.922Z,98522.19
2023-02-27T11:18:45.522Z,98525.03
2023-02-27T11:21:29.119Z,98522.63
2023-02-27T11:23:55.881Z,98517.00
2023-02-27T11:26:38.982Z,98517.88
2023-02-27T11:29:06.335Z,98519.22
2023-02-27T11:31:33.068Z,98507.06
2023-02-27T11:34:01.033Z,98511.78
2023-02-27T11:37:04.399Z,98506.81
2023-02-27T11:39:38.243Z,98502.41
2023-02-27T11:42:31.358Z,98501.31
2023-02-27T11:45:02.264Z,98493.81
2023-02-27T11:47:37.677Z,98499.97
2023-02-27T11:50:10.682Z,98505.13
2023-02-27T11:52:50.755Z,98512.03
2023-02-27T11:55:19.597Z,98518.66
2023-02-27T11:57:47.098Z,98521.28
2023-02-27T12:00:27.074Z,98534.78
2023-02-27T12:03:04.938Z,98537.53
2023-02-27T12:05:33.625Z,98537.97
2023-02-27T12:08:12.358Z,98547.56
2023-02-27T12:10:46.690Z,98557.59
2023-02-27T12:13:16.768Z,98556.47
2023-02-27T12:16:03.620Z,98562.44
2023-02-27T12:18:36.218Z,98561.19
2023-02-27T12:21:05.994Z,98558.97
2023-02-27T12:24:09.227Z,98564.16
2023-02-27T12:26:41.348Z,98572.56
2023-02-27T12:29:25.497Z,98570.66
2023-02-27T12:32:23.282Z,98577.56
2023-02-27T12:35:02.247Z,98576.56
2023-02-27T12:37:29.801Z,98581.38
2023-02-27T12:39:59.379Z,98582.38
2023-02-27T12:42:44.535Z,98578.47
2023-02-27T12:45:44.235Z,98579.38
2023-02-27T12:48:36.773Z,98582.66
2023-02-27T12:51:09.704Z,98578.78
2023-02-27T12:53:58.178Z,98588.56
2023-02-27T12:56:27.157Z,98595.09
2023-02-27T12:59:08.899Z,98595.06
2023-02-27T13:02:13.807Z,98602.31
2023-02-27T13:05:02.907Z,98596.22
2023-02-27T13:07:37.424Z,98603.56
2023-02-27T13:10:18.850Z,98596.22
2023-02-27T13:12:56.610Z,98600.63
2023-02-27T13:15:32.999Z,98599.56
2023-02-27T13:18:04.566Z,98600.69
2023-02-27T13:20:59.312Z,98603.53
2023-02-27T13:23:28.060Z,98608.53
2023-02-27T13:25:55.234Z,98599.53
2023-02-27T13:28:27.327Z,98610.47
2023-02-27T13:31:18.680Z,98617.25
2023-02-27T13:33:54.521Z,98612.38
2023-02-27T13:36:41.726Z,98609.72
2023-02-27T13:39:56.270Z,98610.91
2023-02-27T13:42:26.098Z,98603.50
2023-02-27T13:45:22.565Z,98613.50
2023-02-27T13:47:50.010Z,98613.22
2023-02-27T13:50:21.307Z,98610.81
2023-02-27T13:52:47.982Z,98608.78
2023-02-27T13:55:26.570Z,98602.47
2023-02-27T13:57:55.069Z,98608.22
2023-02-27T14:00:24.716Z,98605.03
2023-02-27T14:02:59.973Z,98607.19
2023-02-27T14:05:36.926Z,98607.03
2023-02-27T14:08:04.117Z,98601.78
2023-02-27T14:10:30.952Z,98598.47
2023-02-27T14:12:58.877Z,98591.16
2023-02-27T14:15:26.225Z,98598.59
2023-02-27T14:18:02.432Z,98588.81
2023-02-27T14:20:39.723Z,98586.94
2023-02-27T14:23:15.131Z,98576.13
2023-02-27T14:25:47.252Z,98572.38
2023-02-27T14:28:36.300Z,98572.53
2023-02-27T14:31:05.998Z,98574.09
2023-02-27T14:33:43.911Z,98560.19
2023-02-27T14:36:21.163Z,98573.81
2023-02-27T14:38:48.249Z,98562.09
2023-02-27T14:42:03.173Z,98554.25
2023-02-27T14:44:40.348Z,98554.56
2023-02-27T14:47:07.092Z,98556.06
2023-02-27T14:49:35.106Z,98564.91
2023-02-27T14:52:21.806Z,98559.69
2023-02-27T14:54:51.681Z,98560.50
2023-02-27T14:57:23.722Z,98558.84
2023-02-27T14:59:51.848Z,98566.91
2023-02-27T15:02:26.291Z,98564.97
2023-02-27T15:05:15.756Z,98560.50
2023-02-27T15:07:53.507Z,98566.59
2023-02-27T15:10:25.103Z,98564.66
2023-02-27T15:12:52.455Z,98563.63
2023-02-27T15:15:20.264Z,98561.34
2023-02-27T15:17:54.742Z,98549.66
2023-02-27T15:20:24.245Z,98554.78
2023-02-27T15:22:50.936Z,98557.31
2023-02-27T15:25:37.486Z,98546.59
2023-02-27T15:28:06.443Z,98545.75
2023-02-27T15:30:33.070Z,98542.81
2023-02-27T15:33:00.115Z,98544.94
2023-02-27T15:35:30.867Z,98540.56
2023-02-27T15:37:59.212Z,98540.59
2023-02-27T15:40:30.520Z,98533.19
2023-02-27T15:42:57.340Z,98529.34
2023-02-27T15:45:32.419Z,98537.00
2023-02-27T15:47:59.072Z,98541.69
2023-02-27T15:50:28.333Z,98536.94
2023-02-27T15:53:00.876Z,98532.13
2023-02-27T15:55:57.840Z,98536.78
2023-02-27T15:58:34.397Z,98544.16
2023-02-27T16:01:13.856Z,98544.50
2023-02-27T16:03:45.645Z,98552.00
2023-02-27T16:06:16.469Z,98546.41
2023-02-27T16:08:46.824Z,98553.72
2023-02-27T16:11:27.691Z,98549.75
2023-02-27T16:13:54.630Z,98554.41
2023-02-27T16:16:21.221Z,98553.03
2023-02-27T16:18:52.016Z,98557.91
2023-02-27T16:21:19.791Z,98562.84
2023-02-27T16:23:46.644Z,98560.13
2023-02-27T16:26:36.847Z,98572.81
2023-02-27T16:29:07.220Z,98571.16
2023-02-27T16:31:35.655Z,98571.84
2023-02-27T16:34:13.580Z,98570.75
2023-02-27T16:36:43.749Z,98572.13
2023-02-27T16:39:12.514Z,98574.03
2023-02-27T16:41:39.137Z,98568.66
2023-02-27T16:44:05.750Z,98573.75
2023-02-27T16:46:32.444Z,98579.63
2023-02-27T16:49:04.588Z,98570.59
2023-02-27T16:51:37.271Z,98576.81
2023-02-27T16:54:03.976Z,98574.41
2023-02-27T16:56:38.108Z,98581.22
2023-02-27T16:59:05.948Z,98583.91
2023-02-27T17:01:34.171Z,98581.59
2023-02-27T17:04:01.182Z,98578.16
2023-02-27T17:06:28.275Z,98585.31
2023-02-27T17:08:56.105Z,98583.28
2023-02-27T17:11:22.856Z,98583.91
2023-02-27T17:13:49.485Z,98590.47
2023-02-27T17:16:16.152Z,98589.19
2023-02-27T17:18:42.863Z,98583.44
2023-02-27T17:21:09.431Z,98585.03
2023-02-27T17:23:36.040Z,98579.50
2023-02-27T17:26:02.801Z,98582.50
2023-02-27T17:28:29.495Z,98588.81
2023-02-27T17:30:56.190Z,98592.28
2023-02-27T17:33:22.886Z,98584.94
2023-02-27T17:35:49.871Z,98585.34
2023-02-27T17:38:17.062Z,98594.81
2023-02-27T17:40:43.675Z,98598.41
2023-02-27T17:43:10.773Z,98602.06
2023-02-27T17:45:38.414Z,98606.34
2023-02-27T17:48:05.277Z,98602.22
2023-02-27T17:50:32.445Z,98605.53
2023-02-27T17:52:59.732Z,98604.97
2023-02-27T17:55:26.330Z,98603.38
2023-02-27T17:57:54.488Z,98609.84
2023-02-27T18:04:33.478Z,98615.22
2023-02-27T18:07:00.155Z,98609.22
2023-02-27T18:09:26.840Z,98613.75
2023-02-27T18:11:53.507Z,98600.38
2023-02-27T18:14:20.207Z,98605.53
2023-02-27T18:16:46.953Z,98603.97
2023-02-27T18:19:14.495Z,98593.22
2023-02-27T18:21:42.555Z,98594.88
2023-02-27T18:24:09.421Z,98595.22
2023-02-27T18:26:36.283Z,98600.53
2023-02-27T18:29:07.862Z,98600.38
2023-02-27T18:31:42.845Z,98599.34
2023-02-27T18:34:09.554Z,98601.94
2023-02-27T18:36:36.211Z,98601.75
2023-02-27T18:39:05.008Z,98607.13
2023-02-27T18:41:31.709Z,98612.25
2023-02-27T18:44:00.900Z,98615.34
2023-02-27T18:46:28.093Z,98628.94
2023-02-27T18:48:55.269Z,98633.63
2023-02-27T18:51:22.081Z,98627.59
2023-02-27T18:53:49.374Z,98629.91
2023-02-27T18:56:18.110Z,98641.69
2023-02-27T18:58:44.812Z,98646.72
2023-02-27T19:01:22.973Z,98653.72
2023-02-27T19:03:50.348Z,98658.38
2023-02-27T19:06:17.069Z,98666.41
2023-02-27T19:08:43.692Z,98665.47
2023-02-27T19:11:10.312Z,98672.41
2023-02-27T19:13:36.920Z,98678.63
2023-02-27T19:16:04.776Z,98688.44
2023-02-27T19:18:31.630Z,98690.03
2023-02-27T19:21:03.134Z,98684.94
2023-02-27T19:23:30.371Z,98687.53
2023-02-27T19:26:00.636Z,98688.16
2023-02-27T19:28:27.420Z,98694.94
2023-02-27T19:30:54.082Z,98700.47
2023-02-27T19:33:20.685Z,98694.56
2023-02-27T19:35:47.348Z,98702.59
2023-02-27T19:38:13.996Z,98691.72
2023-02-27T19:40:40.686Z,98696.16
2023-02-27T19:43:07.559Z,98695.44
2023-02-27T19:45:34.220Z,98695.50
2023-02-27T19:48:01.558Z,98695.41
2023-02-27T19:50:30.276Z,98700.28
2023-02-27T19:52:57.038Z,98696.81
2023-02-27T19:55:24.081Z,98703.03
2023-02-27T19:57:50.771Z,98714.22
2023-02-27T20:00:18.043Z,98710.31
2023-02-27T20:02:44.638Z,98704.13
2023-02-27T20:05:12.187Z,98700.06
2023-02-27T20:07:39.198Z,98698.94
2023-02-27T20:10:06.079Z,98705.69
2023-02-27T20:12:32.770Z,98706.25
2023-02-27T20:14:59.441Z,98697.09
2023-02-27T20:17:26.053Z,98697.28
2023-02-27T20:19:52.670Z,98693.78
2023-02-27T20:22:19.282Z,98694.19
2023-02-27T20:24:46.439Z,98703.34
2023-02-27T20:27:15.225Z,98706.56
2023-02-27T20:29:41.999Z,98701.94
2023-02-27T20:32:08.963Z,98710.56
2023-02-27T20:34:35.662Z,98717.25
2023-02-27T20:37:03.180Z,98722.19
2023-02-27T20:39:29.854Z,98724.16
2023-02-27T20:41:56.487Z,98733.25
2023-02-27T20:44:23.121Z,98736.03
2023-02-27T20:46:49.904Z,98728.69
2023-02-27T20:49:16.657Z,98737.03
2023-02-27T20:51:43.598Z,98733.97
2023-02-27T20:54:13.430Z,98727.44
2023-02-27T20:56:41.353Z,98724.31
2023-02-27T20:59:09.795Z,98720.22
2023-02-27T21:01:38.355Z,98722.28
2023-02-27T21:04:05.286Z,98721.28
2023-02-27T21:06:32.163Z,98730.59
2023-02-27T21:09:00.986Z,98726.34
2023-02-27T21:11:29.170Z,98720.97
2023-02-27T21:13:59.724Z,98718.03
2023-02-27T21:16:26.365Z,98719.91
2023-02-27T21:18:53.508Z,98713.00
2023-02-27T21:21:22.911Z,98701.31
2023-02-27T21:23:49.712Z,98695.91
2023-02-27T21:26:18.672Z,98691.78
2023-02-27T21:28:50.470Z,98701.69
2023-02-27T21:31:18.091Z,98697.44
2023-02-27T21:33:44.974Z,98689.97
2023-02-27T21:36:11.819Z,98684.72
2023-02-27T21:38:38.693Z,98701.56
2023-02-27T21:41:11.440Z,98695.25
2023-02-27T21:43:40.286Z,98696.13
2023-02-27T21:46:16.199Z,98691.72
2023-02-27T21:48:43.448Z,98682.56
2023-02-27T21:51:10.288Z,98680.03
2023-02-27T21:53:37.048Z,98696.47
2023-02-27T21:56:08.383Z,98689.97
2023-02-27T21:58:35.040Z,98687.91
2023-02-27T22:01:01.672Z,98690.13
2023-02-27T22:03:34.206Z,98688.31
2023-02-27T22:06:01.892Z,98698.22
2023-02-27T22:08:28.709Z,98687.91
2023-02-27T22:10:58.849Z,98687.78
2023-02-27T22:13:25.551Z,98689.84
2023-02-27T22:15:52.241Z,98687.53
2023-02-27T22:18:18.830Z,98690.16
2023-02-27T22:20:45.560Z,98676.28
2023-02-27T22:23:12.233Z,98676.28
2023-02-27T22:25:38.903Z,98669.19
2023-02-27T22:28:05.625Z,98662.13
2023-02-27T22:30:32.334Z,98660.75
2023-02-27T22:32:58.948Z,98661.28
2023-02-27T22:35:25.809Z,98662.63
2023-02-27T22:37:52.496Z,98664.56
2023-02-27T22:40:20.335Z,98659.34
2023-02-27T22:42:48.048Z,98648.03
2023-02-27T22:45:14.830Z,98652.03
2023-02-27T22:47:41.509Z,98653.47
2023-02-27T22:50:08.746Z,98651.59
2023-02-27T22:52:36.384Z,98655.88
2023-02-27T22:55:03.588Z,98649.84
2023-02-27T22:57:30.213Z,98649.56
2023-02-27T22:59:56.812Z,98648.53
2023-02-27T23:02:23.443Z,98650.88
2023-02-27T23:04:50.075Z,98649.94
2023-02-27T23:07:16.685Z,98653.81
2023-02-27T23:09:43.894Z,98653.84
2023-02-27T23:12:10.601Z,98662.34
2023-02-27T23:14:37.221Z,98662.78
2023-02-27T23:17:03.873Z,98657.50
2023-02-27T23:19:30.720Z,98658.84
2023-02-27T23:21:57.340Z,98658.06
2023-02-27T23:24:23.923Z,98659.97
2023-02-27T23:26:51.433Z,98666.03
2023-02-27T23:29:18.535Z,98659.22
2023-02-27T23:31:45.467Z,98666.66
2023-02-27T23:34:12.250Z,98665.38
2023-02-27T23:36:39.005Z,98665.16
2023-02-27T23:39:05.967Z,98666.50
2023-02-27T23:41:32.677Z,98666.19
2023-02-27T23:43:59.284Z,98665.06
2023-02-27T23:46:30.196Z,98661.22
2023-02-27T23:49:00.857Z,98672.91
2023-02-27T23:51:30.277Z,98677.19
2023-02-27T23:53:57.164Z,98678.13
2023-02-27T23:56:25.326Z,98674.13
2023-02-27T23:58:56.798Z,98675.75
